Nearby METAR Reports

 

KMLI - Moline/Quad City, Illinois, USA
Distance from station: ENE 4mi, 7km
Updated: 12/16/2018 1:52am
Mist, Clear
Mist, Clear
 Wind from calm
Wind: Calm
Temperature: 25°F , -4°C
Dew Point: 23°F , -5°C
Humidity: 93%
Barometer: 30.15 inHg , 1021 hPa
Summary: Mist
Clouds: Clear
Visibility: 5 miles , 8 km
2018/12/16 07:52 KMLI 160752Z AUTO 00000KT 5SM BR CLR M04/M05 A3015 RMK AO2 SLP215 T10441050
KDVN - Davenport/Quad C, Iowa, USA
Distance from station: N 14mi, 22km
Updated: 12/16/2018 1:52am
Mist, Clear
Mist, Clear
 Wind from calm
Wind: Calm
Temperature: 27°F , -3°C
Dew Point: 25°F , -4°C
Humidity: 93%
Barometer: 30.16 inHg , 1021.3 hPa
Summary: Mist
Clouds: Clear
Visibility: 5 miles , 8 km
2018/12/16 07:52 KDVN 160752Z AUTO 00000KT 5SM BR CLR M03/M04 A3016 RMK AO2 SLP217 I1001 T10331044
 
KMUT - Muscatine, Iowa, USA
Distance from station: W 29mi, 47km
Updated: 12/16/2018 2:15am
Mist, Clear
Mist, Clear
 Wind from calm
Wind: Calm
Temperature: 25°F , -4°C
Dew Point: 23°F , -5°C
Humidity: 93%
Barometer: 30.17 inHg , 1021.7 hPa
Summary: Mist
Clouds: Clear
Visibility: 5 miles , 8 km
2018/12/16 08:15 KMUT 160815Z AUTO 00000KT 5SM BR CLR M04/M05 A3017 RMK AO2
KCWI - Clinton Muni, Iowa, USA
Distance from station: NNE 31mi, 50km
Updated: 12/16/2018 12:56am
NOT Current
Clear
Clear
 Wind from NNE
Wind: NNE 3 mph , 6 km/h
Temperature: 25°F , -4°C
Dew Point: 23°F , -5°C
Humidity: 93%
Barometer: 30.15 inHg , 1021 hPa
Clouds: Clear
Visibility: 9 miles , 14 km
2018/12/16 06:56 KCWI 160656Z AUTO 03003KT 9SM CLR M04/M05 A3015 RMK AO2 SLP240 T10391050 FZRANO
 
KGBG - Galesburg, Illinois, USA
Distance from station: SSE 35mi, 56km
Updated: 12/16/2018 2:15am
Mist, Clear
Mist, Clear
 Wind from calm
Wind: Calm
Temperature: 27°F , -3°C
Dew Point: 27°F , -3°C
Humidity: 100%
Barometer: 30.17 inHg , 1021.7 hPa
Summary: Mist
Clouds: Clear
Visibility: 4 miles , 6 km
2018/12/16 08:15 KGBG 160815Z AUTO 00000KT 4SM BR CLR M03/M03 A3017 RMK AO2 T10331033
KSFY - Savanna/Tritown, Illinois, USA
Distance from station: NNE 50mi, 80km
Updated: 12/16/2018 2:15am
Mist, Clear
Mist, Clear
 Wind from calm
Wind: Calm
Temperature: 25°F , -4°C
Dew Point: 23°F , -5°C
Humidity: 93%
Barometer: 30.15 inHg , 1021 hPa
Summary: Mist
Clouds: Clear
Visibility: 4 miles , 6 km
2018/12/16 08:15 KSFY 160815Z AUTO 00000KT 4SM BR CLR M04/M05 A3015 RMK AO2